Weather reports worldwide

Advertisment
Leon/Virgen del Camino, Spain (8055): temperature & dewpoint: 12.01.2021 07:00:00 - 18.01.2021 07:00:00 (CET)Leon/Virgen del Camino, Spain (8055): wind speed: 12.01.2021 07:00:00 - 18.01.2021 07:00:00 (CET)Leon/Virgen del Camino, Spain (8055): wind direction: 12.01.2021 07:00:00 - 18.01.2021 07:00:00 (CET)Leon/Virgen del Camino, Spain (8055): visibility: 12.01.2021 07:00:00 - 18.01.2021 07:00:00 (CET)
Date & Time tt [°C] td [°C] ff [km/h] ff [kn] dd vv [km]
18.01.2021 07:00:00 -3,3 -3,4 8 4 N -
18.01.2021 06:00:00 -3,2 -3,3 5 3 NW -
18.01.2021 05:00:00 -3,4 -3,5 5 3 W -
18.01.2021 04:00:00 -2,5 -2,9 5 3 WSW -
18.01.2021 03:00:00 -2,6 -3,2 4 2 SW -
18.01.2021 02:00:00 -2,5 -3,1 5 3 NNE -
18.01.2021 01:00:00 -1,8 -2,5 5 3 WSW -
18.01.2021 00:00:00 -0,6 -1,2 5 3 NE -
17.01.2021 23:00:00 -0,4 -1,4 8 4 W -
17.01.2021 22:00:00 -0,2 -1,5 0 0 N -
17.01.2021 21:00:00 0,2 -1,1 4 2 W -
17.01.2021 20:00:00 2,8 0,4 9 5 SSW -
17.01.2021 19:00:00 4,0 1,0 4 2 SW 30
17.01.2021 18:00:00 6,0 1,3 4 2 SSE -
17.01.2021 17:00:00 8,4 1,8 9 5 SE -
17.01.2021 16:00:00 10,1 1,7 11 6 SSE 30
17.01.2021 15:00:00 8,8 1,5 9 5 SSW -
17.01.2021 14:00:00 7,2 0,8 8 4 SSE -
17.01.2021 13:00:00 4,4 -0,2 8 4 ESE 15
17.01.2021 12:00:00 1,8 -1,8 2 1 SE -
17.01.2021 11:00:00 -1,4 -3,4 0 0 N -
17.01.2021 10:00:00 -4,9 -5,3 0 0 N 4,0
17.01.2021 09:00:00 -7,2 -7,9 0 0 N -
17.01.2021 08:00:00 -7,4 -7,7 0 0 N -
17.01.2021 07:00:00 -7,1 -7,4 0 0 N -
17.01.2021 06:00:00 -7,6 -7,9 0 0 N -
17.01.2021 05:00:00 -7,5 -7,8 2 1 NE -
17.01.2021 04:00:00 -7,3 -7,6 0 0 N -
17.01.2021 03:00:00 -7,3 -7,4 0 0 N -
17.01.2021 02:00:00 -6,9 -7,0 0 0 N -
17.01.2021 01:00:00 -6,9 -7,0 0 0 N -
17.01.2021 00:00:00 -6,5 -7,3 0 0 N -
16.01.2021 23:00:00 -5,7 -6,2 5 3 W -
16.01.2021 22:00:00 -6,0 -6,7 5 3 N -
16.01.2021 21:00:00 -5,0 -5,1 2 1 WNW -
16.01.2021 20:00:00 -4,1 -4,4 0 0 N -
16.01.2021 19:00:00 -2,4 -3,0 0 0 N 0,1
16.01.2021 18:00:00 0,0 -2,2 8 4 SSE -
16.01.2021 17:00:00 3,5 -1,1 11 6 SE -
16.01.2021 16:00:00 5,2 -0,2 11 6 SE 30
16.01.2021 15:00:00 5,8 -0,1 11 6 SSE -
16.01.2021 14:00:00 5,1 -0,9 8 4 S -
16.01.2021 13:00:00 3,6 -1,9 5 3 SE 20
16.01.2021 12:00:00 1,2 -2,3 4 2 SSE -
16.01.2021 11:00:00 -1,9 -3,6 2 1 ESE -
16.01.2021 10:00:00 -4,0 -4,5 2 1 SSE 20
16.01.2021 09:00:00 -6,9 -7,8 0 0 N -
16.01.2021 08:00:00 -7,1 -8,3 0 0 N -
16.01.2021 07:00:00 -6,1 -7,2 0 0 N -
16.01.2021 06:00:00 -5,6 -7,0 0 0 N -
16.01.2021 05:00:00 -5,5 -6,7 4 2 NNW -
16.01.2021 04:00:00 -5,0 -6,0 4 2 W -
16.01.2021 03:00:00 -4,1 -5,4 0 0 N -
16.01.2021 02:00:00 -3,2 -4,5 0 0 N -
16.01.2021 01:00:00 -4,3 -5,2 5 3 NNW -
16.01.2021 00:00:00 -4,0 -5,0 5 3 WNW -
15.01.2021 23:00:00 -3,7 -4,8 0 0 N -
15.01.2021 22:00:00 -2,5 -3,3 5 3 N -
15.01.2021 21:00:00 -1,9 -2,9 5 3 N -
15.01.2021 20:00:00 -1,6 -2,9 4 2 NW -
15.01.2021 19:00:00 -0,3 -2,2 0 0 N 20
15.01.2021 18:00:00 3,0 -0,6 5 3 SE -
15.01.2021 17:00:00 4,2 0,3 8 4 SSE -
15.01.2021 16:00:00 6,0 0,3 9 5 SE 50
15.01.2021 15:00:00 6,0 0,3 8 4 SSE -
15.01.2021 14:00:00 5,4 0,3 9 5 SE -
15.01.2021 13:00:00 5,6 0,8 4 2 E 65
15.01.2021 12:00:00 2,6 0,2 0 0 N -
15.01.2021 11:00:00 -1,5 -2,5 0 0 N -
15.01.2021 10:00:00 -3,4 -3,5 4 2 NNW 30
15.01.2021 09:00:00 -6,9 -8,0 8 4 NNE -
15.01.2021 08:00:00 -6,3 -7,2 5 3 NE -
15.01.2021 07:00:00 -5,3 -6,1 4 2 NNE -
15.01.2021 06:00:00 -4,1 -4,4 8 4 W -
15.01.2021 05:00:00 -4,1 -4,4 8 4 SW -
15.01.2021 04:00:00 -4,9 -6,0 0 0 N -
15.01.2021 03:00:00 -2,5 -3,1 4 2 E -
15.01.2021 02:00:00 -3,9 -4,7 4 2 NNW -
15.01.2021 01:00:00 -3,8 -4,6 4 2 W -
15.01.2021 00:00:00 -3,5 -4,8 4 2 E -
14.01.2021 23:00:00 -2,6 -3,4 8 4 N -
14.01.2021 22:00:00 -2,7 -3,8 8 4 N -
14.01.2021 21:00:00 -0,3 -1,9 4 2 ESE -
14.01.2021 20:00:00 0,6 -1,5 8 4 W -
14.01.2021 19:00:00 1,7 -1,4 11 6 WSW 75
14.01.2021 18:00:00 5,6 -0,5 8 4 SE -
14.01.2021 17:00:00 9,7 1,3 4 2 E -
14.01.2021 16:00:00 10,3 0,5 8 4 SSE 60
14.01.2021 15:00:00 9,8 0,3 9 5 S -
14.01.2021 14:00:00 9,1 0,3 5 3 SSE -
14.01.2021 13:00:00 6,1 -0,4 5 3 S 75
14.01.2021 12:00:00 3,3 -0,7 4 2 SE -
14.01.2021 11:00:00 0,9 -1,7 0 0 N -
14.01.2021 10:00:00 -2,8 -3,1 0 0 N 75
14.01.2021 09:00:00 -6,5 -7,4 4 2 NW -
14.01.2021 08:00:00 -5,9 -6,2 4 2 NNE -
14.01.2021 07:00:00 -6,3 -6,6 5 3 NNW -
14.01.2021 06:00:00 -6,2 -6,3 0 0 N -
14.01.2021 05:00:00 -5,8 -6,2 0 0 N -
14.01.2021 04:00:00 -5,5 -6,0 0 0 N -
14.01.2021 03:00:00 -4,8 -5,6 0 0 N -
14.01.2021 02:00:00 -4,9 -5,7 0 0 N -
14.01.2021 01:00:00 -4,3 -5,3 0 0 N -
14.01.2021 00:00:00 -3,6 -4,3 0 0 N -
13.01.2021 23:00:00 -4,1 -5,8 0 0 N -
13.01.2021 22:00:00 -2,7 -4,3 0 0 N -
13.01.2021 21:00:00 -2,3 -3,9 0 0 N -
13.01.2021 20:00:00 -0,7 -3,6 0 0 N -
13.01.2021 19:00:00 2,0 -2,9 5 3 SE 30
13.01.2021 18:00:00 5,3 -1,8 8 4 SE -
13.01.2021 17:00:00 6,8 -1,6 9 5 SE -
13.01.2021 16:00:00 7,6 -1,4 11 6 SSE 45
13.01.2021 15:00:00 7,0 -1,2 5 3 S -
13.01.2021 14:00:00 5,1 -1,4 5 3 SE -
13.01.2021 13:00:00 2,9 -1,7 4 2 SE 65
13.01.2021 12:00:00 1,4 -1,8 5 3 ESE -
13.01.2021 11:00:00 0,0 -2,5 4 2 E -
13.01.2021 10:00:00 -3,7 -4,4 4 2 NNE 65
13.01.2021 09:00:00 -5,9 -7,0 4 2 NNW -
13.01.2021 08:00:00 -6,2 -7,4 8 4 WSW -
13.01.2021 07:00:00 -5,7 -6,8 9 5 N -
13.01.2021 06:00:00 -4,9 -5,9 8 4 NNW -
13.01.2021 05:00:00 -4,5 -5,5 5 3 NNW -
13.01.2021 04:00:00 -4,5 -5,6 5 3 N -
13.01.2021 03:00:00 -5,1 -6,3 4 2 NNE -
13.01.2021 02:00:00 -4,7 -5,7 4 2 NNE -
13.01.2021 01:00:00 -4,4 -5,6 8 4 NNW -
13.01.2021 00:00:00 -4,0 -5,8 0 0 N -
12.01.2021 23:00:00 -3,0 -5,3 2 1 W -
12.01.2021 22:00:00 -2,8 -4,8 8 4 N -
12.01.2021 21:00:00 -1,9 -4,7 4 2 N -
12.01.2021 20:00:00 -0,2 -4,1 0 0 N -
12.01.2021 19:00:00 1,9 -3,8 8 4 WSW 70
12.01.2021 18:00:00 6,0 -2,6 13 7 SSW -
12.01.2021 17:00:00 8,0 -2,1 11 6 S -
12.01.2021 16:00:00 8,0 -2,0 9 5 SSW 70
12.01.2021 15:00:00 6,5 -2,2 9 5 SSW -
12.01.2021 14:00:00 5,3 -2,1 8 4 SSW -
12.01.2021 13:00:00 3,6 -1,8 9 5 SSW 70
12.01.2021 12:00:00 1,4 -2,4 11 6 SSW -
12.01.2021 11:00:00 -0,7 -4,2 4 2 E -
12.01.2021 10:00:00 -4,7 -6,2 4 2 N 65
12.01.2021 09:00:00 -7,4 -9,2 2 1 NE -
12.01.2021 08:00:00 -6,7 -8,4 0 0 N -
12.01.2021 07:00:00 -6,0 -6,9 2 1 W -

tt = temperature
td = dewpoint
ff = wind speed
dd = wind direction
vv = visibility

Next stations